createdAt,value
2017-10-27T00:02:06.131Z,3.40
2017-10-27T00:04:33.627Z,2.80
2017-10-27T00:07:01.143Z,2.83
2017-10-27T00:09:28.653Z,3.17
2017-10-27T00:11:56.181Z,4.20
2017-10-27T00:14:23.699Z,4.20
2017-10-27T00:16:51.984Z,3.80
2017-10-27T00:19:20.255Z,4.20
2017-10-27T00:21:48.553Z,4.10
2017-10-27T00:24:16.062Z,4.50
2017-10-27T00:26:43.562Z,3.90
2017-10-27T00:29:11.085Z,4.47
2017-10-27T00:31:38.595Z,4.40
2017-10-27T00:34:06.111Z,4.00
2017-10-27T00:36:34.735Z,3.10
2017-10-27T00:39:02.247Z,3.83
2017-10-27T00:41:29.751Z,3.40
2017-10-27T00:43:57.267Z,3.20
2017-10-27T00:46:24.764Z,3.33
2017-10-27T00:48:52.287Z,3.80
2017-10-27T00:51:20.559Z,2.70
2017-10-27T00:53:48.080Z,2.73
2017-10-27T00:56:15.584Z,3.23
2017-10-27T00:58:43.872Z,2.90
2017-10-27T01:01:12.146Z,2.30
2017-10-27T01:03:40.428Z,2.40
2017-10-27T01:06:07.927Z,2.23
2017-10-27T01:08:36.219Z,2.23
2017-10-27T01:11:03.711Z,2.30
2017-10-27T01:13:31.991Z,2.10
2017-10-27T01:16:00.263Z,1.70
2017-10-27T01:18:28.542Z,2.07
2017-10-27T01:20:57.153Z,2.00
2017-10-27T01:23:24.683Z,2.30
2017-10-27T01:25:52.952Z,1.90
2017-10-27T01:28:21.219Z,2.00
2017-10-27T01:30:49.513Z,1.77
2017-10-27T01:33:17.013Z,2.23
2017-10-27T01:35:44.533Z,2.20
2017-10-27T01:38:12.032Z,1.97
2017-10-27T01:40:39.547Z,2.10
2017-10-27T01:43:07.043Z,2.23
2017-10-27T01:45:34.564Z,1.90
2017-10-27T01:48:02.079Z,2.40
2017-10-27T01:50:29.596Z,1.80
2017-10-27T01:52:57.100Z,1.77
2017-10-27T01:55:25.026Z,1.83
2017-10-27T01:57:52.528Z,1.80
2017-10-27T02:00:20.053Z,1.80
2017-10-27T02:02:47.556Z,1.93
2017-10-27T02:05:15.075Z,1.70
2017-10-27T02:07:42.580Z,2.30
2017-10-27T02:10:10.868Z,2.00
2017-10-27T02:12:39.136Z,2.47
2017-10-27T02:15:07.421Z,2.30
2017-10-27T02:17:35.688Z,2.00
2017-10-27T02:20:03.971Z,1.87
2017-10-27T02:22:32.234Z,1.80
2017-10-27T02:25:00.515Z,1.93
2017-10-27T02:27:28.775Z,2.33
2017-10-27T02:29:56.275Z,2.17
2017-10-27T02:32:23.791Z,2.07
2017-10-27T02:34:51.287Z,2.20
2017-10-27T02:37:18.799Z,1.93
2017-10-27T02:39:46.300Z,2.40
2017-10-27T02:42:13.825Z,1.93
2017-10-27T02:44:42.104Z,1.73
2017-10-27T02:47:09.619Z,2.07
2017-10-27T02:49:37.118Z,1.90
2017-10-27T02:52:04.640Z,2.80
2017-10-27T02:54:32.147Z,1.50
2017-10-27T02:57:00.430Z,2.37
2017-10-27T02:59:28.697Z,2.17
2017-10-27T03:01:56.987Z,2.10
2017-10-27T03:04:25.243Z,2.23
2017-10-27T03:06:53.534Z,1.73
2017-10-27T03:09:21.034Z,2.10
2017-10-27T03:11:49.315Z,1.90
2017-10-27T03:14:16.815Z,2.30
2017-10-27T03:16:45.095Z,2.00
2017-10-27T03:19:13.363Z,2.63
2017-10-27T03:21:41.648Z,2.50
2017-10-27T03:24:09.911Z,2.43
2017-10-27T03:26:37.434Z,2.23
2017-10-27T03:29:04.928Z,2.20
2017-10-27T03:31:33.235Z,2.43
2017-10-27T03:34:00.731Z,2.40
2017-10-27T03:36:28.234Z,3.07
2017-10-27T03:38:56.514Z,3.40
2017-10-27T03:41:24.011Z,2.33
2017-10-27T03:43:51.522Z,2.87
2017-10-27T03:46:19.788Z,2.60
2017-10-27T03:48:48.071Z,2.40
2017-10-27T03:51:16.330Z,2.70
2017-10-27T03:53:43.847Z,2.50
2017-10-27T03:56:11.344Z,2.90
2017-10-27T03:58:38.867Z,2.70
2017-10-27T04:01:06.567Z,2.90
2017-10-27T04:03:34.088Z,2.47
2017-10-27T04:06:01.583Z,2.80
2017-10-27T04:08:29.098Z,3.27
2017-10-27T04:10:56.599Z,3.10
2017-10-27T04:13:24.116Z,2.97
2017-10-27T04:15:51.611Z,3.70
2017-10-27T04:18:19.127Z,3.53
2017-10-27T04:20:46.626Z,2.90
2017-10-27T04:23:14.147Z,3.20
2017-10-27T04:25:41.643Z,3.40
2017-10-27T04:28:09.155Z,3.67
2017-10-27T04:30:36.655Z,3.40
2017-10-27T04:33:04.197Z,2.80
2017-10-27T04:35:31.698Z,2.97
2017-10-27T04:37:59.207Z,3.27
2017-10-27T04:40:26.723Z,3.80
2017-10-27T04:42:54.228Z,2.83
2017-10-27T04:45:21.747Z,3.23
2017-10-27T04:47:49.250Z,3.37
2017-10-27T04:50:16.772Z,3.53
2017-10-27T04:52:44.276Z,3.50
2017-10-27T04:55:11.791Z,3.20
2017-10-27T04:57:39.292Z,2.50
2017-10-27T05:00:06.813Z,3.27
2017-10-27T05:02:34.330Z,2.70
2017-10-27T05:05:03.352Z,3.20
2017-10-27T05:07:30.885Z,3.40
2017-10-27T05:09:59.187Z,3.10
2017-10-27T05:12:26.705Z,2.90
2017-10-27T05:14:55.227Z,3.27
2017-10-27T05:17:29.126Z,2.90
2017-10-27T05:20:02.339Z,4.47
2017-10-27T05:22:35.563Z,3.23
2017-10-27T05:25:03.920Z,3.43
2017-10-27T05:27:31.432Z,2.90
2017-10-27T05:29:59.752Z,2.90
2017-10-27T05:32:27.275Z,3.03
2017-10-27T05:34:55.584Z,3.30
2017-10-27T05:37:23.084Z,3.60
2017-10-27T05:39:50.611Z,3.20
2017-10-27T05:42:18.127Z,3.73
2017-10-27T05:44:46.386Z,3.33
2017-10-27T05:47:14.673Z,3.10
2017-10-27T05:49:42.934Z,3.00
2017-10-27T05:52:10.455Z,3.20
2017-10-27T05:54:37.955Z,3.33
2017-10-27T05:57:06.248Z,3.70
2017-10-27T05:59:34.520Z,3.50
2017-10-27T06:02:02.800Z,3.90
2017-10-27T06:04:30.305Z,4.00
2017-10-27T06:06:58.591Z,4.77
2017-10-27T06:09:26.108Z,4.47
2017-10-27T06:11:53.627Z,4.03
2017-10-27T06:14:21.137Z,5.40
2017-10-27T06:16:48.656Z,5.63
2017-10-27T06:19:16.923Z,6.13
2017-10-27T06:21:45.216Z,6.60
2017-10-27T06:24:13.485Z,5.97
2017-10-27T06:26:41.771Z,5.50
2017-10-27T06:29:09.280Z,6.03
2017-10-27T06:31:36.807Z,5.23
2017-10-27T06:34:04.315Z,6.03
2017-10-27T06:36:31.908Z,6.10
2017-10-27T06:38:59.429Z,6.20
2017-10-27T06:41:27.048Z,6.47
2017-10-27T06:43:56.464Z,6.90
2017-10-27T06:46:26.681Z,6.67
2017-10-27T06:48:54.222Z,8.23
2017-10-27T06:51:22.458Z,6.90
2017-10-27T06:53:50.775Z,7.10
2017-10-27T06:56:18.278Z,7.60
2017-10-27T06:58:45.801Z,8.60
2017-10-27T07:01:13.302Z,8.37
2017-10-27T07:03:40.828Z,8.17
2017-10-27T07:06:08.331Z,8.93
2017-10-27T07:08:36.624Z,9.47
2017-10-27T07:11:04.895Z,11.20
2017-10-27T07:13:33.182Z,10.10
2017-10-27T07:16:00.689Z,12.00
2017-10-27T07:18:28.231Z,12.57
2017-10-27T07:20:55.739Z,12.07
2017-10-27T07:23:24.026Z,11.03
2017-10-27T07:25:52.300Z,12.23
2017-10-27T07:28:20.593Z,13.83
2017-10-27T07:30:48.104Z,12.97
2017-10-27T07:33:15.631Z,13.73
2017-10-27T07:35:43.171Z,14.07
2017-10-27T07:38:10.692Z,12.83
2017-10-27T07:40:38.207Z,12.70
2017-10-27T07:43:05.726Z,13.20
2017-10-27T07:45:34.000Z,12.87
2017-10-27T07:48:02.271Z,12.50
2017-10-27T07:50:30.580Z,12.40
2017-10-27T07:52:58.126Z,11.70
2017-10-27T07:55:25.651Z,12.20
2017-10-27T07:57:53.162Z,10.87
2017-10-27T08:00:20.692Z,11.13
2017-10-27T08:02:48.967Z,10.57
2017-10-27T08:05:17.353Z,11.37
2017-10-27T08:07:44.888Z,11.37
2017-10-27T08:10:12.697Z,12.00
2017-10-27T08:12:40.382Z,10.97
2017-10-27T08:15:08.915Z,11.40
2017-10-27T08:17:36.452Z,10.90
2017-10-27T08:20:05.659Z,10.17
2017-10-27T08:22:34.005Z,10.87
2017-10-27T08:25:01.532Z,12.30
2017-10-27T08:27:29.039Z,12.27
2017-10-27T08:29:56.560Z,12.80
2017-10-27T08:32:24.066Z,11.73
2017-10-27T08:34:52.381Z,11.73
2017-10-27T08:37:19.887Z,11.80
2017-10-27T08:39:47.419Z,12.73
2017-10-27T08:42:26.747Z,12.93
2017-10-27T08:44:54.277Z,10.77
2017-10-27T08:47:21.792Z,10.57
2017-10-27T08:49:49.315Z,10.70
2017-10-27T08:52:16.823Z,9.50
2017-10-27T08:54:45.118Z,9.80
2017-10-27T08:57:13.382Z,8.33
2017-10-27T08:59:41.656Z,8.43
2017-10-27T09:02:09.944Z,6.77
2017-10-27T09:04:37.458Z,8.20
2017-10-27T09:07:04.991Z,7.27
2017-10-27T09:09:32.511Z,7.00
2017-10-27T09:12:00.805Z,7.57
2017-10-27T09:14:28.311Z,7.27
2017-10-27T09:16:55.826Z,7.90
2017-10-27T09:19:23.340Z,6.83
2017-10-27T09:21:50.871Z,8.70
2017-10-27T09:24:18.379Z,7.90
2017-10-27T09:26:46.670Z,6.17
2017-10-27T09:29:14.175Z,5.27
2017-10-27T09:31:41.703Z,5.33
2017-10-27T09:34:09.212Z,5.57
2017-10-27T09:36:36.740Z,5.87
2017-10-27T09:39:04.413Z,4.73
2017-10-27T09:41:31.959Z,4.50
2017-10-27T09:44:03.131Z,4.77
2017-10-27T09:46:32.294Z,5.40
2017-10-27T09:48:59.828Z,5.40
2017-10-27T09:51:27.362Z,4.97
2017-10-27T09:53:55.788Z,5.07
2017-10-27T09:56:29.776Z,5.63
2017-10-27T09:58:57.399Z,5.93
2017-10-27T10:01:28.676Z,6.33
2017-10-27T10:04:00.223Z,5.60
2017-10-27T10:06:31.710Z,4.73
2017-10-27T10:08:59.268Z,5.60
2017-10-27T10:11:27.238Z,4.83
2017-10-27T10:14:07.137Z,5.97
2017-10-27T10:16:39.843Z,5.23
2017-10-27T10:19:09.732Z,5.40
2017-10-27T10:28:07.085Z,5.43
2017-10-27T10:34:13.387Z,4.73
2017-10-27T10:37:59.238Z,3.07
2017-10-27T10:40:28.849Z,3.80
2017-10-27T10:43:06.061Z,3.37
2017-10-27T11:00:12.495Z,3.90
2017-10-27T11:05:41.643Z,3.50
2017-10-27T11:08:09.208Z,3.27
2017-10-27T11:10:36.779Z,3.40
2017-10-27T11:22:15.405Z,3.77
2017-10-27T11:56:00.335Z,5.73
2017-10-27T11:58:27.921Z,5.57
2017-10-27T12:03:30.631Z,5.50
2017-10-27T12:05:58.247Z,5.47
2017-10-27T12:08:25.970Z,5.43
2017-10-27T12:10:54.271Z,6.07
2017-10-27T12:13:23.091Z,5.83
2017-10-27T12:15:51.415Z,4.73
2017-10-27T12:18:19.023Z,5.20
2017-10-27T12:20:47.469Z,5.27
2017-10-27T12:23:15.528Z,5.67
2017-10-27T12:25:43.074Z,5.37
2017-10-27T12:28:10.588Z,5.17
2017-10-27T12:30:38.110Z,4.60
2017-10-27T12:33:20.926Z,4.27
2017-10-27T12:35:50.196Z,5.00
2017-10-27T12:38:18.702Z,4.10
2017-10-27T12:40:46.302Z,4.10
2017-10-27T12:43:13.844Z,4.70
2017-10-27T12:45:41.427Z,4.40
2017-10-27T12:48:08.939Z,5.43
2017-10-27T12:50:36.456Z,4.60
2017-10-27T12:53:04.728Z,3.90
2017-10-27T12:55:32.994Z,4.10
2017-10-27T12:58:00.507Z,3.97
2017-10-27T13:00:28.007Z,3.07
2017-10-27T13:02:55.519Z,3.23
2017-10-27T13:05:23.015Z,4.00
2017-10-27T13:07:50.531Z,4.00
2017-10-27T13:10:18.035Z,3.67
2017-10-27T13:12:45.553Z,3.20
2017-10-27T13:15:13.060Z,2.63
2017-10-27T13:17:40.584Z,3.93
2017-10-27T13:20:08.079Z,3.30
2017-10-27T13:22:36.377Z,3.37
2017-10-27T13:25:03.889Z,3.33
2017-10-27T13:27:31.560Z,3.83
2017-10-27T13:29:59.064Z,3.30
2017-10-27T13:32:26.585Z,3.33
2017-10-27T13:34:54.091Z,4.40
2017-10-27T13:37:21.611Z,4.03
2017-10-27T13:39:49.894Z,3.87
2017-10-27T13:42:18.173Z,3.80
2017-10-27T13:44:45.689Z,4.63
2017-10-27T13:47:13.208Z,4.20
2017-10-27T13:49:40.711Z,4.37
2017-10-27T13:52:08.267Z,5.13
2017-10-27T13:54:36.390Z,4.43
2017-10-27T13:57:06.749Z,5.10
2017-10-27T13:59:34.316Z,4.40
2017-10-27T14:02:03.691Z,4.90
2017-10-27T14:04:31.207Z,4.07
2017-10-27T14:06:59.476Z,4.70
2017-10-27T14:09:27.841Z,3.73
2017-10-27T14:11:55.349Z,3.20
2017-10-27T14:14:22.862Z,2.80
2017-10-27T14:16:50.355Z,2.80
2017-10-27T14:19:17.863Z,2.40
2017-10-27T14:21:45.363Z,2.53
2017-10-27T14:24:13.639Z,3.13
2017-10-27T14:26:41.906Z,3.63
2017-10-27T14:29:10.183Z,4.10
2017-10-27T14:31:38.448Z,3.70
2017-10-27T14:34:05.964Z,3.73
2017-10-27T14:36:33.468Z,3.07
2017-10-27T14:39:00.987Z,4.13
2017-10-27T14:41:28.488Z,4.40
2017-10-27T14:43:56.771Z,4.20
2017-10-27T14:46:25.032Z,4.30
2017-10-27T14:48:52.542Z,4.50
2017-10-27T14:51:20.037Z,3.80
2017-10-27T14:53:47.551Z,4.63
2017-10-27T14:56:15.047Z,4.00
2017-10-27T14:58:42.564Z,3.13
2017-10-27T15:01:10.060Z,3.73
2017-10-27T15:03:37.583Z,3.50
2017-10-27T15:06:05.114Z,3.17
2017-10-27T15:08:33.394Z,3.37
2017-10-27T15:11:00.912Z,3.20
2017-10-27T15:13:28.412Z,3.40
2017-10-27T15:15:55.934Z,3.60
2017-10-27T15:18:23.430Z,4.00
2017-10-27T15:20:50.948Z,3.90
2017-10-27T15:23:18.468Z,3.77
2017-10-27T15:25:46.922Z,3.73
2017-10-27T15:28:17.350Z,3.40
2017-10-27T15:30:47.166Z,2.63
2017-10-27T15:33:16.521Z,3.10
2017-10-27T15:35:44.163Z,2.53
2017-10-27T15:38:12.628Z,3.20
2017-10-27T15:40:40.150Z,3.10
2017-10-27T15:43:08.411Z,3.10
2017-10-27T15:45:35.935Z,2.60
2017-10-27T15:48:03.427Z,3.00
2017-10-27T15:50:30.972Z,3.57
2017-10-27T15:52:58.483Z,3.33
2017-10-27T15:55:25.995Z,3.47
2017-10-27T15:57:53.491Z,3.47
2017-10-27T16:00:21.004Z,3.70
2017-10-27T16:02:48.511Z,3.33
2017-10-27T16:05:16.043Z,5.20
2017-10-27T16:07:44.304Z,4.13
2017-10-27T16:10:11.803Z,4.47
2017-10-27T16:12:39.317Z,4.50
2017-10-27T16:15:06.823Z,3.87
2017-10-27T16:17:34.341Z,3.73
2017-10-27T16:20:01.840Z,3.30
2017-10-27T16:22:29.352Z,4.00
2017-10-27T16:24:56.847Z,3.90
2017-10-27T16:27:24.364Z,4.03
2017-10-27T16:29:51.880Z,3.60
2017-10-27T16:32:19.396Z,4.97
2017-10-27T16:34:47.660Z,4.60
2017-10-27T16:37:15.175Z,4.60
2017-10-27T16:39:42.673Z,4.60
2017-10-27T16:42:10.183Z,4.10
2017-10-27T16:44:37.791Z,4.50
2017-10-27T16:47:06.107Z,5.27
2017-10-27T16:49:33.645Z,5.20
2017-10-27T16:52:01.982Z,5.73
2017-10-27T16:54:29.529Z,5.13
2017-10-27T16:56:57.870Z,5.50
2017-10-27T16:59:25.416Z,4.30
2017-10-27T17:01:53.188Z,4.87
2017-10-27T17:04:22.497Z,3.90
2017-10-27T17:06:52.594Z,4.03
2017-10-27T17:09:20.442Z,4.00
2017-10-27T17:11:48.012Z,3.80
2017-10-27T17:14:15.564Z,3.30
2017-10-27T17:16:43.068Z,2.87
2017-10-27T17:19:10.582Z,2.20
2017-10-27T17:21:38.098Z,2.23
2017-10-27T17:24:05.628Z,2.70
2017-10-27T17:26:33.891Z,2.10
2017-10-27T17:29:02.174Z,2.20
2017-10-27T17:31:30.444Z,1.87
2017-10-27T17:33:58.723Z,2.10
2017-10-27T17:36:26.983Z,2.40
2017-10-27T17:38:54.500Z,2.30
2017-10-27T17:41:21.996Z,2.53
2017-10-27T17:43:49.509Z,2.60
2017-10-27T17:46:17.011Z,2.73
2017-10-27T17:48:44.519Z,3.10
2017-10-27T17:51:12.011Z,3.43
2017-10-27T17:53:39.528Z,3.60
2017-10-27T17:56:07.023Z,3.27
2017-10-27T17:58:34.537Z,3.33
2017-10-27T18:01:02.039Z,3.60
2017-10-27T18:03:29.547Z,5.87
2017-10-27T18:05:57.807Z,6.90
2017-10-27T18:08:26.095Z,5.17
2017-10-27T18:10:54.351Z,4.53
2017-10-27T18:13:21.900Z,5.30
2017-10-27T18:15:49.402Z,5.93
2017-10-27T18:18:16.952Z,5.60
2017-10-27T18:20:45.320Z,6.23
2017-10-27T18:23:13.626Z,6.10
2017-10-27T18:25:41.201Z,6.20
2017-10-27T18:28:08.716Z,5.67
2017-10-27T18:30:38.436Z,6.43
2017-10-27T18:33:07.394Z,7.00
2017-10-27T18:35:34.943Z,6.80
2017-10-27T18:38:02.450Z,7.50
2017-10-27T18:40:29.969Z,6.40
2017-10-27T18:42:57.508Z,7.80
2017-10-27T18:45:25.106Z,7.50
2017-10-27T18:47:53.397Z,7.20
2017-10-27T18:50:21.730Z,7.73
2017-10-27T18:52:49.232Z,6.53
2017-10-27T18:55:17.513Z,8.30
2017-10-27T18:57:45.006Z,7.50
2017-10-27T19:00:12.520Z,8.40
2017-10-27T19:02:40.783Z,7.83
2017-10-27T19:05:09.071Z,8.10
2017-10-27T19:07:37.335Z,8.27
2017-10-27T19:10:05.618Z,7.50
2017-10-27T19:12:33.879Z,8.67
2017-10-27T19:15:01.395Z,8.07
2017-10-27T19:17:28.888Z,7.67
2017-10-27T19:19:56.415Z,8.70
2017-10-27T19:22:23.917Z,8.87
2017-10-27T19:24:52.189Z,9.20
2017-10-27T19:27:19.702Z,8.93
2017-10-27T19:29:47.432Z,8.70
2017-10-27T19:32:14.951Z,8.90
2017-10-27T19:34:42.447Z,8.63
2017-10-27T19:37:10.722Z,9.10
2017-10-27T19:39:38.996Z,8.63
2017-10-27T19:42:08.114Z,8.70
2017-10-27T19:44:36.150Z,9.30
2017-10-27T19:47:04.437Z,7.73
2017-10-27T19:49:32.031Z,9.70
2017-10-27T19:51:59.685Z,9.60
2017-10-27T19:54:27.251Z,9.23
2017-10-27T19:56:54.832Z,9.17
2017-10-27T19:59:22.415Z,9.03
2017-10-27T20:01:50.741Z,10.37
2017-10-27T20:04:18.276Z,10.20
2017-10-27T20:06:45.831Z,8.97
2017-10-27T20:09:14.159Z,8.60
2017-10-27T20:11:41.726Z,9.20
2017-10-27T20:14:09.999Z,9.30
2017-10-27T20:16:37.538Z,9.13
2017-10-27T20:19:05.051Z,9.87
2017-10-27T20:21:33.339Z,10.50
2017-10-27T20:24:00.839Z,8.90
2017-10-27T20:26:28.388Z,10.40
2017-10-27T20:28:55.887Z,11.23
2017-10-27T20:31:23.383Z,12.80
2017-10-27T20:33:50.899Z,9.80
2017-10-27T20:36:18.401Z,11.70
2017-10-27T20:38:45.928Z,10.67
2017-10-27T20:41:13.432Z,10.90
2017-10-27T20:43:40.947Z,10.43
2017-10-27T20:46:09.215Z,9.50
2017-10-27T20:48:36.735Z,9.93
2017-10-27T20:51:04.239Z,10.03
2017-10-27T20:53:32.530Z,10.40
2017-10-27T20:56:00.808Z,10.53
2017-10-27T20:58:29.095Z,10.20
2017-10-27T21:00:56.595Z,9.87
2017-10-27T21:03:24.111Z,10.43
2017-10-27T21:05:51.611Z,11.13
2017-10-27T21:11:09.852Z,10.07
2017-10-27T21:13:37.371Z,10.50
2017-10-27T21:16:05.644Z,12.17
2017-10-27T21:18:34.009Z,11.23
2017-10-27T21:21:01.540Z,10.57
2017-10-27T21:23:29.829Z,10.50
2017-10-27T21:25:58.769Z,10.60
2017-10-27T21:28:26.295Z,10.10
2017-10-27T21:30:54.391Z,10.97
2017-10-27T21:33:21.921Z,10.70
2017-10-27T21:35:49.429Z,10.00
2017-10-27T21:38:16.964Z,11.10
2017-10-27T21:40:44.471Z,10.20
2017-10-27T21:43:12.744Z,10.93
2017-10-27T21:45:40.265Z,11.37
2017-10-27T21:48:07.777Z,10.87
2017-10-27T21:50:35.544Z,10.40
2017-10-27T21:53:03.052Z,10.63
2017-10-27T21:55:30.576Z,10.97
2017-10-27T21:57:58.852Z,10.40
2017-10-27T22:00:27.139Z,9.93
2017-10-27T22:02:55.416Z,10.27
2017-10-27T22:05:23.703Z,11.07
2017-10-27T22:07:51.220Z,10.03
2017-10-27T22:10:18.732Z,9.43
2017-10-27T22:12:46.706Z,11.23
2017-10-27T22:15:14.224Z,10.87
2017-10-27T22:17:42.528Z,11.00
2017-10-27T22:20:10.064Z,12.57
2017-10-27T22:22:38.347Z,10.37
2017-10-27T22:25:06.632Z,11.57
2017-10-27T22:27:34.154Z,12.00
2017-10-27T22:30:02.459Z,11.43
2017-10-27T22:32:30.731Z,11.33
2017-10-27T22:34:59.026Z,11.70
2017-10-27T22:37:26.546Z,11.60
2017-10-27T22:39:54.851Z,11.07
2017-10-27T22:42:23.111Z,11.87
2017-10-27T22:44:51.411Z,12.20
2017-10-27T22:47:18.936Z,12.10
2017-10-27T22:49:46.439Z,13.23
2017-10-27T22:52:13.959Z,11.90
2017-10-27T22:54:42.236Z,12.50
2017-10-27T22:57:10.523Z,12.17
2017-10-27T22:59:38.799Z,12.90
2017-10-27T23:02:07.083Z,12.10
2017-10-27T23:04:34.590Z,12.70
2017-10-27T23:07:02.885Z,12.50
2017-10-27T23:09:30.388Z,13.00
2017-10-27T23:11:58.217Z,11.50
2017-10-27T23:14:26.495Z,12.47
2017-10-27T23:16:54.784Z,12.40
2017-10-27T23:19:23.055Z,12.70
2017-10-27T23:21:51.344Z,12.73
2017-10-27T23:24:18.849Z,11.63
2017-10-27T23:26:47.144Z,12.87
2017-10-27T23:29:14.649Z,13.47
2017-10-27T23:31:42.171Z,11.97
2017-10-27T23:34:09.675Z,11.90
2017-10-27T23:36:37.195Z,12.30
2017-10-27T23:39:06.360Z,12.57
2017-10-27T23:41:33.882Z,12.10
2017-10-27T23:44:01.385Z,11.80
2017-10-27T23:46:28.909Z,13.00
2017-10-27T23:48:56.416Z,12.97
2017-10-27T23:51:23.920Z,13.53
2017-10-27T23:53:51.440Z,13.00
2017-10-27T23:56:19.707Z,11.97
2017-10-27T23:58:47.996Z,12.33
